Weather Outlook - 6th August 2022 (6pm)

The atmosphere will remain unstable across Saint Vincent and the Grenadines for the remainder of the weekend due to a tropical wave and its trailing instability. Expect occasional moderate showers with isolated thunderstorms tonight. Winds may become gusty near showers. Instability will last into Sunday and showers are forecast to intensify as the day progresses into Monday.

By Monday night, another tropical wave (currently weak) will be approaching the islands and isolated showers are expected into Tuesday, however mid to upper levels are forecast to lend support and shower activity is likely to be enhanced as Tuesday progresses. 

Winds will blow from the east northeast (ENE) to east (E) at approximately 25km/h-35 km/h allowing for breezy conditions from time to time.

Seas will be slight to moderate in open waters with swells ranging between 0.5m to 1.0m on the western coasts and peaking at 2.0m on the eastern coasts. In addition, slight haze intrusion will be across the region. 

Meanwhile, a tropical wave just off the coast of West Africa has a low chance of cyclone formation within the next 5 day. 

Aviation WX

[Source: ADDS]
METAR
TVSA 052100Z 00000KT 9999 SCT022 27/21 Q1009 NOSIG =
TVSA 051700Z 0518/0618 VRB02KT 9999 SCT018 PROB30 TEMPO 0518/0521 SHRA BKN015
TAF
TVSA 051700Z 0518/0618 VRB02KT 9999 SCT018 PROB30 TEMPO 0518/0521 SHRA BKN015 =
SR / SS: 10:13 / 21:36 UTC (Sunrise Sunset 2022-12-05)